Time,TemperatureF,DewpointF,PressureIn,WindDirection,WindDirectionDegrees,WindSpeedMPH,WindSpeedGustMPH,Humidity,HourlyPrecipIn,Conditions,Clouds,dailyrainin,SoftwareType,DateUTC
2013-04-26 00:00:00,43.6,27.6,30.26,NE,40,0.0,8.0,53,0.00,,,0.00,Wunderground v.1.15,2013-04-26 04:00:00,
2013-04-26 00:05:00,43.7,27.2,30.26,NE,40,0.0,8.0,52,0.00,,,0.00,Wunderground v.1.15,2013-04-26 04:05:00,
2013-04-26 00:10:00,43.7,27.7,30.26,NE,40,1.0,1.0,53,0.00,,,0.00,Wunderground v.1.15,2013-04-26 04:10:00,
2013-04-26 00:15:00,43.6,27.6,30.26,NE,40,0.0,8.0,53,0.00,,,0.00,Wunderground v.1.15,2013-04-26 04:15:00,
2013-04-26 00:20:00,43.6,27.1,30.27,NE,40,0.0,8.0,52,0.00,,,0.00,Wunderground v.1.15,2013-04-26 04:20:00,
2013-04-26 00:25:00,43.4,27.8,30.27,NE,40,0.0,8.0,54,0.00,,,0.00,Wunderground v.1.15,2013-04-26 04:25:00,
2013-04-26 00:30:00,43.1,27.6,30.27,NE,40,0.0,8.0,54,0.00,,,0.00,Wunderground v.1.15,2013-04-26 04:30:00,
2013-04-26 00:35:00,42.7,28.5,30.27,NE,40,0.0,8.0,57,0.00,,,0.00,Wunderground v.1.15,2013-04-26 04:35:00,
2013-04-26 00:40:00,42.2,27.2,30.27,NE,40,0.0,8.0,55,0.00,,,0.00,Wunderground v.1.15,2013-04-26 04:40:00,
2013-04-26 00:50:00,41.8,27.2,30.27,NE,40,1.0,8.0,56,0.00,,,0.00,Wunderground v.1.15,2013-04-26 04:50:00,
2013-04-26 00:55:00,41.7,27.1,30.27,NE,40,1.0,8.0,56,0.00,,,0.00,Wunderground v.1.15,2013-04-26 04:55:00,
2013-04-26 01:00:00,41.9,27.3,30.28,NE,40,1.0,1.0,56,0.00,,,0.00,Wunderground v.1.15,2013-04-26 05:00:00,
2013-04-26 01:05:00,42.0,27.4,30.28,NE,40,0.0,8.0,56,0.00,,,0.00,Wunderground v.1.15,2013-04-26 05:05:00,
2013-04-26 01:10:00,42.4,27.4,30.27,NE,40,1.0,8.0,55,0.00,,,0.00,Wunderground v.1.15,2013-04-26 05:10:00,
2013-04-26 01:15:00,42.6,27.5,30.28,NE,40,1.0,8.0,55,0.00,,,0.00,Wunderground v.1.15,2013-04-26 05:15:00,
2013-04-26 01:20:00,42.6,27.1,30.28,NE,40,0.0,8.0,54,0.00,,,0.00,Wunderground v.1.15,2013-04-26 05:20:00,
2013-04-26 01:25:00,42.3,27.3,30.27,NE,40,0.0,8.0,55,0.00,,,0.00,Wunderground v.1.15,2013-04-26 05:25:00,
2013-04-26 01:35:00,42.2,26.7,30.27,NE,40,0.0,8.0,54,0.00,,,0.00,Wunderground v.1.15,2013-04-26 05:35:00,
2013-04-26 01:40:00,42.2,26.7,30.27,NE,40,1.0,8.0,54,0.00,,,0.00,Wunderground v.1.15,2013-04-26 05:40:00,
2013-04-26 01:45:00,42.3,26.8,30.27,NE,40,1.0,8.0,54,0.00,,,0.00,Wunderground v.1.15,2013-04-26 05:45:00,
2013-04-26 01:50:00,42.3,26.4,30.27,NE,40,1.0,8.0,53,0.00,,,0.00,Wunderground v.1.15,2013-04-26 05:50:00,
2013-04-26 01:55:00,42.4,26.0,30.27,NE,40,1.0,8.0,52,0.00,,,0.00,Wunderground v.1.15,2013-04-26 05:55:00,
2013-04-26 02:00:00,42.4,26.0,30.27,NE,40,1.0,8.0,52,0.00,,,0.00,Wunderground v.1.15,2013-04-26 06:00:00,
2013-04-26 02:05:00,42.4,25.5,30.27,NE,40,1.0,8.0,51,0.00,,,0.00,Wunderground v.1.15,2013-04-26 06:05:00,
2013-04-26 02:10:00,42.4,25.5,30.27,NE,40,2.0,2.0,51,0.00,,,0.00,Wunderground v.1.15,2013-04-26 06:10:00,
2013-04-26 02:20:00,42.5,25.1,30.27,NE,40,1.0,8.0,50,0.00,,,0.00,Wunderground v.1.15,2013-04-26 06:20:00,
2013-04-26 02:25:00,42.4,25.5,30.28,NE,40,1.0,8.0,51,0.00,,,0.00,Wunderground v.1.15,2013-04-26 06:25:00,
2013-04-26 02:30:00,42.3,25.4,30.28,NE,35,2.0,2.0,51,0.00,,,0.00,Wunderground v.1.15,2013-04-26 06:30:00,
2013-04-26 02:35:00,42.2,25.3,30.28,NE,35,1.0,8.0,51,0.00,,,0.00,Wunderground v.1.15,2013-04-26 06:35:00,
2013-04-26 02:40:00,42.0,25.2,30.28,NE,35,1.0,1.0,51,0.00,,,0.00,Wunderground v.1.15,2013-04-26 06:40:00,
2013-04-26 02:45:00,42.1,24.8,30.28,NE,35,1.0,2.0,50,0.00,,,0.00,Wunderground v.1.15,2013-04-26 06:45:00,
2013-04-26 02:50:00,42.6,24.8,30.28,NE,35,1.0,1.0,49,0.00,,,0.00,Wunderground v.1.15,2013-04-26 06:50:00,
2013-04-26 02:55:00,42.7,24.4,30.28,NE,35,1.0,8.0,48,0.00,,,0.00,Wunderground v.1.15,2013-04-26 06:55:00,
2013-04-26 03:00:00,43.0,24.1,30.28,NE,35,1.0,1.0,47,0.00,,,0.00,Wunderground v.1.15,2013-04-26 07:00:00,
2013-04-26 03:10:00,42.6,24.3,30.28,NE,35,0.0,8.0,48,0.00,,,0.00,Wunderground v.1.15,2013-04-26 07:10:00,
2013-04-26 03:15:00,42.4,24.6,30.28,NE,35,0.0,8.0,49,0.00,,,0.00,Wunderground v.1.15,2013-04-26 07:15:00,
2013-04-26 03:20:00,42.1,24.3,30.28,NE,35,0.0,8.0,49,0.00,,,0.00,Wunderground v.1.15,2013-04-26 07:20:00,
2013-04-26 03:25:00,41.9,24.1,30.28,NE,35,0.0,8.0,49,0.00,,,0.00,Wunderground v.1.15,2013-04-26 07:25:00,
2013-04-26 03:30:00,42.0,23.7,30.28,NE,35,0.0,8.0,48,0.00,,,0.00,Wunderground v.1.15,2013-04-26 07:30:00,
2013-04-26 03:35:00,42.0,23.7,30.28,NE,35,0.0,8.0,48,0.00,,,0.00,Wunderground v.1.15,2013-04-26 07:35:00,
2013-04-26 03:40:00,42.2,23.9,30.28,NE,35,0.0,8.0,48,0.00,,,0.00,Wunderground v.1.15,2013-04-26 07:40:00,
2013-04-26 03:50:00,42.2,23.9,30.28,NE,35,0.0,8.0,48,0.00,,,0.00,Wunderground v.1.15,2013-04-26 07:50:00,
2013-04-26 03:55:00,42.0,24.2,30.29,NE,35,0.0,8.0,49,0.00,,,0.00,Wunderground v.1.15,2013-04-26 07:55:00,
2013-04-26 04:00:00,41.9,24.1,30.29,NE,35,1.0,8.0,49,0.00,,,0.00,Wunderground v.1.15,2013-04-26 08:00:00,
2013-04-26 04:05:00,42.1,23.8,30.29,NE,35,1.0,8.0,48,0.00,,,0.00,Wunderground v.1.15,2013-04-26 08:05:00,
2013-04-26 04:10:00,42.2,24.4,30.29,NE,35,1.0,8.0,49,0.00,,,0.00,Wunderground v.1.15,2013-04-26 08:10:00,
2013-04-26 04:15:00,42.0,24.7,30.30,NE,35,1.0,8.0,50,0.00,,,0.00,Wunderground v.1.15,2013-04-26 08:15:00,
2013-04-26 04:20:00,41.8,24.5,30.30,NE,35,1.0,8.0,50,0.00,,,0.00,Wunderground v.1.15,2013-04-26 08:20:00,
2013-04-26 04:25:00,41.8,25.0,30.30,NE,53,2.0,8.0,51,0.00,,,0.00,Wunderground v.1.15,2013-04-26 08:25:00,
2013-04-26 04:35:00,42.1,25.3,30.30,NE,53,1.0,8.0,51,0.00,,,0.00,Wunderground v.1.15,2013-04-26 08:35:00,
2013-04-26 04:45:00,42.5,25.1,30.30,NE,53,0.0,8.0,50,0.00,,,0.00,Wunderground v.1.15,2013-04-26 08:45:00,
2013-04-26 04:50:00,42.7,25.3,30.30,NE,53,0.0,8.0,50,0.00,,,0.00,Wunderground v.1.15,2013-04-26 08:50:00,
2013-04-26 04:55:00,42.4,25.5,30.30,NE,53,0.0,8.0,51,0.00,,,0.00,Wunderground v.1.15,2013-04-26 08:55:00,
2013-04-26 05:00:00,41.8,25.4,30.30,NE,53,1.0,8.0,52,0.00,,,0.00,Wunderground v.1.15,2013-04-26 09:00:00,
2013-04-26 05:05:00,41.8,25.0,30.30,NE,53,1.0,8.0,51,0.00,,,0.00,Wunderground v.1.15,2013-04-26 09:05:00,
2013-04-26 05:10:00,41.8,25.0,30.30,ENE,65,1.0,8.0,51,0.00,,,0.00,Wunderground v.1.15,2013-04-26 09:10:00,
2013-04-26 05:15:00,41.8,25.9,30.31,ENE,65,1.0,8.0,53,0.00,,,0.00,Wunderground v.1.15,2013-04-26 09:15:00,
2013-04-26 05:20:00,41.6,25.7,30.31,ENE,65,1.0,1.0,53,0.00,,,0.00,Wunderground v.1.15,2013-04-26 09:20:00,
2013-04-26 05:30:00,41.7,25.8,30.31,ENE,57,1.0,1.0,53,0.00,,,0.00,Wunderground v.1.15,2013-04-26 09:30:00,
2013-04-26 05:35:00,41.9,25.5,30.31,ENE,57,1.0,2.0,52,0.00,,,0.00,Wunderground v.1.15,2013-04-26 09:35:00,
2013-04-26 05:40:00,41.7,25.4,30.32,ENE,57,1.0,1.0,52,0.00,,,0.00,Wunderground v.1.15,2013-04-26 09:40:00,
2013-04-26 05:45:00,41.8,25.4,30.32,ENE,57,1.0,8.0,52,0.00,,,0.00,Wunderground v.1.15,2013-04-26 09:45:00,
2013-04-26 05:50:00,41.7,25.8,30.32,ENE,57,0.0,8.0,53,0.00,,,0.00,Wunderground v.1.15,2013-04-26 09:50:00,
2013-04-26 05:55:00,41.6,25.3,30.32,ENE,57,1.0,8.0,52,0.00,,,0.00,Wunderground v.1.15,2013-04-26 09:55:00,
2013-04-26 06:00:00,42.0,25.2,30.33,ENE,57,1.0,8.0,51,0.00,,,0.00,Wunderground v.1.15,2013-04-26 10:00:00,
2013-04-26 06:10:00,42.8,25.4,30.33,ENE,57,1.0,1.0,50,0.00,,,0.00,Wunderground v.1.15,2013-04-26 10:10:00,
2013-04-26 06:15:00,42.8,25.9,30.33,ENE,57,0.0,8.0,51,0.00,,,0.00,Wunderground v.1.15,2013-04-26 10:15:00,
2013-04-26 06:20:00,42.7,25.8,30.33,ENE,57,0.0,8.0,51,0.00,,,0.00,Wunderground v.1.15,2013-04-26 10:20:00,
2013-04-26 06:25:00,42.4,25.5,30.33,ENE,57,0.0,8.0,51,0.00,,,0.00,Wunderground v.1.15,2013-04-26 10:25:00,
2013-04-26 06:30:00,42.3,25.9,30.34,ENE,57,1.0,1.0,52,0.00,,,0.00,Wunderground v.1.15,2013-04-26 10:30:00,
2013-04-26 06:35:00,42.5,25.6,30.34,ENE,57,1.0,8.0,51,0.00,,,0.00,Wunderground v.1.15,2013-04-26 10:35:00,
2013-04-26 06:40:00,43.1,25.7,30.34,ENE,57,1.0,8.0,50,0.00,,,0.00,Wunderground v.1.15,2013-04-26 10:40:00,
2013-04-26 06:50:00,44.0,26.0,30.34,ENE,57,0.0,8.0,49,0.00,,,0.00,Wunderground v.1.15,2013-04-26 10:50:00,
2013-04-26 06:55:00,44.6,26.1,30.34,ENE,57,0.0,8.0,48,0.00,,,0.00,Wunderground v.1.15,2013-04-26 10:55:00,
2013-04-26 07:00:00,44.7,27.2,30.35,NE,48,1.0,8.0,50,0.00,,,0.00,Wunderground v.1.15,2013-04-26 11:00:00,
2013-04-26 07:05:00,45.0,27.0,30.36,NE,34,1.0,8.0,49,0.00,,,0.00,Wunderground v.1.15,2013-04-26 11:05:00,
2013-04-26 07:10:00,45.6,27.0,30.36,NNE,22,2.0,2.0,48,0.00,,,0.00,Wunderground v.1.15,2013-04-26 11:10:00,
2013-04-26 07:15:00,46.0,27.4,30.36,NNE,17,1.0,8.0,48,0.00,,,0.00,Wunderground v.1.15,2013-04-26 11:15:00,
2013-04-26 07:20:00,46.2,27.6,30.36,NNE,15,1.0,8.0,48,0.00,,,0.00,Wunderground v.1.15,2013-04-26 11:20:00,
2013-04-26 07:25:00,46.2,28.1,30.37,NE,42,2.0,8.0,49,0.00,,,0.00,Wunderground v.1.15,2013-04-26 11:25:00,
2013-04-26 07:30:00,46.1,28.5,30.37,NNE,29,2.0,8.0,50,0.00,,,0.00,Wunderground v.1.15,2013-04-26 11:30:00,
2013-04-26 07:40:00,46.0,28.9,30.37,NE,54,3.0,8.0,51,0.00,,,0.00,Wunderground v.1.15,2013-04-26 11:40:00,
2013-04-26 07:45:00,46.2,28.6,30.37,ENE,60,3.0,8.0,50,0.00,,,0.00,Wunderground v.1.15,2013-04-26 11:45:00,
2013-04-26 07:50:00,46.5,28.3,30.37,NE,56,3.0,8.0,49,0.00,,,0.00,Wunderground v.1.15,2013-04-26 11:50:00,
2013-04-26 07:55:00,46.9,28.2,30.38,NNE,19,3.0,8.0,48,0.00,,,0.00,Wunderground v.1.15,2013-04-26 11:55:00,
2013-04-26 08:00:00,47.0,28.8,30.37,ENE,66,3.0,8.0,49,0.00,,,0.00,Wunderground v.1.15,2013-04-26 12:00:00,
2013-04-26 08:05:00,47.2,28.5,30.37,North,360,4.0,8.0,48,0.00,,,0.00,Wunderground v.1.15,2013-04-26 12:05:00,
2013-04-26 08:10:00,47.2,29.5,30.38,East,84,4.0,8.0,50,0.00,,,0.00,Wunderground v.1.15,2013-04-26 12:10:00,
2013-04-26 08:15:00,47.7,28.9,30.38,North,355,3.0,8.0,48,0.00,,,0.00,Wunderground v.1.15,2013-04-26 12:15:00,
2013-04-26 08:25:00,47.1,28.9,30.38,NE,34,4.0,11.0,49,0.00,,,0.00,Wunderground v.1.15,2013-04-26 12:25:00,
2013-04-26 08:30:00,46.9,29.2,30.38,NNE,17,5.0,5.0,50,0.00,,,0.00,Wunderground v.1.15,2013-04-26 12:30:00,
2013-04-26 08:40:00,47.5,30.3,30.38,East,80,4.0,8.0,51,0.00,,,0.00,Wunderground v.1.15,2013-04-26 12:40:00,
2013-04-26 08:45:00,47.3,30.5,30.38,ENE,69,5.0,8.0,52,0.00,,,0.00,Wunderground v.1.15,2013-04-26 12:45:00,
2013-04-26 08:50:00,47.5,30.7,30.38,ENE,70,6.0,6.0,52,0.00,,,0.00,Wunderground v.1.15,2013-04-26 12:50:00,
2013-04-26 08:55:00,48.3,31.0,30.38,East,94,3.0,8.0,51,0.00,,,0.00,Wunderground v.1.15,2013-04-26 12:55:00,
2013-04-26 09:00:00,48.8,31.0,30.38,East,92,3.0,8.0,50,0.00,,,0.00,Wunderground v.1.15,2013-04-26 13:00:00,
2013-04-26 09:05:00,48.9,31.1,30.39,North,11,4.0,8.0,50,0.00,,,0.00,Wunderground v.1.15,2013-04-26 13:05:00,
2013-04-26 09:10:00,49.4,31.0,30.38,NE,54,4.0,8.0,49,0.00,,,0.00,Wunderground v.1.15,2013-04-26 13:10:00,
2013-04-26 09:15:00,49.7,30.8,30.38,ENE,63,3.0,8.0,48,0.00,,,0.00,Wunderground v.1.15,2013-04-26 13:15:00,
2013-04-26 09:25:00,50.2,30.7,30.39,North,5,4.0,8.0,47,0.00,,,0.00,Wunderground v.1.15,2013-04-26 13:25:00,
2013-04-26 09:30:00,50.2,31.2,30.39,NNE,32,4.0,4.0,48,0.00,,,0.00,Wunderground v.1.15,2013-04-26 13:30:00,
2013-04-26 09:35:00,50.6,32.1,30.39,ENE,61,3.0,8.0,49,0.00,,,0.00,Wunderground v.1.15,2013-04-26 13:35:00,
2013-04-26 09:40:00,50.4,31.9,30.39,North,9,4.0,8.0,49,0.00,,,0.00,Wunderground v.1.15,2013-04-26 13:40:00,
2013-04-26 09:45:00,50.6,32.1,30.39,NE,36,4.0,8.0,49,0.00,,,0.00,Wunderground v.1.15,2013-04-26 13:45:00,
2013-04-26 09:50:00,51.1,34.1,30.39,East,91,3.0,8.0,52,0.00,,,0.00,Wunderground v.1.15,2013-04-26 13:50:00,
2013-04-26 09:55:00,51.2,34.2,30.39,NNW,344,4.0,8.0,52,0.00,,,0.00,Wunderground v.1.15,2013-04-26 13:55:00,
2013-04-26 10:05:00,51.6,33.0,30.39,North,349,3.0,8.0,49,0.00,,,0.00,Wunderground v.1.15,2013-04-26 14:05:00,
2013-04-26 10:10:00,51.9,34.3,30.39,NNE,32,3.0,3.0,51,0.00,,,0.00,Wunderground v.1.15,2013-04-26 14:10:00,
2013-04-26 10:15:00,51.9,34.8,30.39,NNE,22,4.0,6.0,52,0.00,,,0.00,Wunderground v.1.15,2013-04-26 14:15:00,
2013-04-26 10:25:00,51.7,34.1,30.39,NW,311,4.0,8.0,51,0.00,,,0.00,Wunderground v.1.15,2013-04-26 14:25:00,
2013-04-26 10:30:00,52.2,35.1,30.39,North,5,3.0,8.0,52,0.00,,,0.00,Wunderground v.1.15,2013-04-26 14:30:00,
2013-04-26 10:35:00,52.7,35.6,30.39,East,96,3.0,8.0,52,0.00,,,0.00,Wunderground v.1.15,2013-04-26 14:35:00,
2013-04-26 10:45:00,52.7,36.5,30.39,NNW,342,4.0,8.0,54,0.00,,,0.00,Wunderground v.1.15,2013-04-26 14:45:00,
2013-04-26 10:50:00,53.4,36.7,30.39,ENE,74,2.0,8.0,53,0.00,,,0.00,Wunderground v.1.15,2013-04-26 14:50:00,
2013-04-26 11:00:00,53.8,36.6,30.39,East,90,4.0,8.0,52,0.00,,,0.00,Wunderground v.1.15,2013-04-26 15:00:00,
2013-04-26 11:05:00,54.0,35.8,30.39,NNW,327,3.0,8.0,50,0.00,,,0.00,Wunderground v.1.15,2013-04-26 15:05:00,
2013-04-26 11:10:00,54.1,36.9,30.39,NNE,17,3.0,8.0,52,0.00,,,0.00,Wunderground v.1.15,2013-04-26 15:10:00,
2013-04-26 11:15:00,54.1,37.3,30.39,ENE,57,4.0,8.0,53,0.00,,,0.00,Wunderground v.1.15,2013-04-26 15:15:00,
2013-04-26 11:20:00,53.7,36.5,30.39,NNW,336,5.0,5.0,52,0.00,,,0.00,Wunderground v.1.15,2013-04-26 15:20:00,
2013-04-26 11:30:00,55.0,37.7,30.39,East,82,3.0,3.0,52,0.00,,,0.00,Wunderground v.1.15,2013-04-26 15:30:00,
2013-04-26 11:35:00,54.7,36.4,30.39,NW,306,3.0,8.0,50,0.00,,,0.00,Wunderground v.1.15,2013-04-26 15:35:00,
2013-04-26 11:40:00,54.7,36.9,30.39,NNE,31,3.0,8.0,51,0.00,,,0.00,Wunderground v.1.15,2013-04-26 15:40:00,
2013-04-26 11:45:00,54.0,36.8,30.39,East,92,4.0,8.0,52,0.00,,,0.00,Wunderground v.1.15,2013-04-26 15:45:00,
2013-04-26 11:50:00,54.1,36.9,30.38,NE,53,5.0,8.0,52,0.00,,,0.00,Wunderground v.1.15,2013-04-26 15:50:00,
2013-04-26 11:55:00,54.5,36.7,30.38,NNW,343,5.0,8.0,51,0.00,,,0.00,Wunderground v.1.15,2013-04-26 15:55:00,
2013-04-26 12:00:00,55.4,37.6,30.38,NE,55,3.0,3.0,51,0.00,,,0.00,Wunderground v.1.15,2013-04-26 16:00:00,
2013-04-26 12:05:00,55.9,36.5,30.38,NNE,15,3.0,8.0,48,0.00,,,0.00,Wunderground v.1.15,2013-04-26 16:05:00,
2013-04-26 12:10:00,56.1,36.1,30.38,ESE,107,3.0,8.0,47,0.00,,,0.00,Wunderground v.1.15,2013-04-26 16:10:00,
2013-04-26 12:20:00,55.2,36.9,30.38,North,5,5.0,5.0,50,0.00,,,0.00,Wunderground v.1.15,2013-04-26 16:20:00,
2013-04-26 12:25:00,55.0,35.7,30.38,South,173,5.0,8.0,48,0.00,,,0.00,Wunderground v.1.15,2013-04-26 16:25:00,
2013-04-26 12:30:00,55.2,35.8,30.38,WNW,288,4.0,4.0,48,0.00,,,0.00,Wunderground v.1.15,2013-04-26 16:30:00,
2013-04-26 12:35:00,55.9,36.5,30.38,NE,53,3.0,8.0,48,0.00,,,0.00,Wunderground v.1.15,2013-04-26 16:35:00,
2013-04-26 12:40:00,56.2,36.8,30.37,NNE,26,4.0,8.0,48,0.00,,,0.00,Wunderground v.1.15,2013-04-26 16:40:00,
2013-04-26 12:45:00,55.9,34.8,30.38,ENE,74,5.0,8.0,45,0.00,,,0.00,Wunderground v.1.15,2013-04-26 16:45:00,
2013-04-26 12:50:00,55.6,35.7,30.37,NNW,348,5.0,5.0,47,0.00,,,0.00,Wunderground v.1.15,2013-04-26 16:50:00,
2013-04-26 13:00:00,56.5,36.0,30.37,West,261,3.0,3.0,46,0.00,,,0.00,Wunderground v.1.15,2013-04-26 17:00:00,
2013-04-26 13:05:00,56.9,36.3,30.37,East,87,3.0,8.0,46,0.00,,,0.00,Wunderground v.1.15,2013-04-26 17:05:00,
2013-04-26 13:10:00,56.4,35.9,30.37,East,89,5.0,9.0,46,0.00,,,0.00,Wunderground v.1.15,2013-04-26 17:10:00,
2013-04-26 13:15:00,55.7,36.3,30.37,ENE,59,7.0,9.0,48,0.00,,,0.00,Wunderground v.1.15,2013-04-26 17:15:00,
2013-04-26 13:20:00,56.2,35.1,30.37,NW,311,5.0,5.0,45,0.00,,,0.00,Wunderground v.1.15,2013-04-26 17:20:00,
2013-04-26 13:25:00,56.8,36.2,30.37,North,11,4.0,8.0,46,0.00,,,0.00,Wunderground v.1.15,2013-04-26 17:25:00,
2013-04-26 13:30:00,56.7,36.1,30.37,ENE,61,4.0,8.0,46,0.00,,,0.00,Wunderground v.1.15,2013-04-26 17:30:00,
2013-04-26 13:40:00,56.3,35.8,30.37,WNW,294,5.0,5.0,46,0.00,,,0.00,Wunderground v.1.15,2013-04-26 17:40:00,
2013-04-26 13:45:00,57.0,35.9,30.37,WNW,294,4.0,8.0,45,0.00,,,0.00,Wunderground v.1.15,2013-04-26 17:45:00,
2013-04-26 13:50:00,57.5,35.2,30.36,WNW,285,4.0,8.0,43,0.00,,,0.00,Wunderground v.1.15,2013-04-26 17:50:00,
2013-04-26 13:55:00,57.3,36.1,30.36,NE,47,5.0,8.0,45,0.00,,,0.00,Wunderground v.1.15,2013-04-26 17:55:00,
2013-04-26 14:00:00,56.9,35.2,30.36,NNE,17,6.0,6.0,44,0.00,,,0.00,Wunderground v.1.15,2013-04-26 18:00:00,
2013-04-26 14:05:00,56.8,34.5,30.37,WNW,283,5.0,7.0,43,0.00,,,0.00,Wunderground v.1.15,2013-04-26 18:05:00,
2013-04-26 14:10:00,57.5,35.2,30.37,NE,46,4.0,8.0,43,0.00,,,0.00,Wunderground v.1.15,2013-04-26 18:10:00,
2013-04-26 14:15:00,57.2,35.5,30.37,NW,315,4.0,8.0,44,0.00,,,0.00,Wunderground v.1.15,2013-04-26 18:15:00,
2013-04-26 14:20:00,58.1,33.9,30.37,NE,35,4.0,8.0,40,0.00,,,0.00,Wunderground v.1.15,2013-04-26 18:20:00,
2013-04-26 14:30:00,57.6,32.2,30.36,NNE,18,4.0,8.0,38,0.00,,,0.00,Wunderground v.1.15,2013-04-26 18:30:00,
2013-04-26 14:35:00,57.9,33.1,30.36,NW,308,4.0,8.0,39,0.00,,,0.00,Wunderground v.1.15,2013-04-26 18:35:00,
2013-04-26 14:40:00,57.7,34.1,30.36,ESE,111,4.0,4.0,41,0.00,,,0.00,Wunderground v.1.15,2013-04-26 18:40:00,
2013-04-26 14:45:00,57.9,34.3,30.36,NE,54,2.0,8.0,41,0.00,,,0.00,Wunderground v.1.15,2013-04-26 18:45:00,
2013-04-26 14:50:00,57.9,33.1,30.36,NNE,27,3.0,8.0,39,0.00,,,0.00,Wunderground v.1.15,2013-04-26 18:50:00,
2013-04-26 14:55:00,58.1,33.9,30.36,North,360,4.0,8.0,40,0.00,,,0.00,Wunderground v.1.15,2013-04-26 18:55:00,
2013-04-26 15:00:00,58.4,34.2,30.36,NE,36,4.0,4.0,40,0.00,,,0.00,Wunderground v.1.15,2013-04-26 19:00:00,
2013-04-26 15:05:00,58.5,34.2,30.36,East,88,3.0,7.0,40,0.00,,,0.00,Wunderground v.1.15,2013-04-26 19:05:00,
2013-04-26 15:15:00,57.3,34.4,30.36,NNE,13,5.0,8.0,42,0.00,,,0.00,Wunderground v.1.15,2013-04-26 19:15:00,
2013-04-26 15:20:00,57.4,35.1,30.36,NNE,13,3.0,8.0,43,0.00,,,0.00,Wunderground v.1.15,2013-04-26 19:20:00,
2013-04-26 15:25:00,57.5,32.1,30.36,NNW,345,4.0,8.0,38,0.00,,,0.00,Wunderground v.1.15,2013-04-26 19:25:00,
2013-04-26 15:30:00,57.7,32.9,30.36,NE,34,4.0,8.0,39,0.00,,,0.00,Wunderground v.1.15,2013-04-26 19:30:00,
2013-04-26 15:35:00,57.5,34.0,30.36,ENE,70,5.0,8.0,41,0.00,,,0.00,Wunderground v.1.15,2013-04-26 19:35:00,
2013-04-26 15:40:00,57.7,33.5,30.36,ENE,68,4.0,4.0,40,0.00,,,0.00,Wunderground v.1.15,2013-04-26 19:40:00,
2013-04-26 15:45:00,57.8,33.6,30.36,South,184,3.0,8.0,40,0.00,,,0.00,Wunderground v.1.15,2013-04-26 19:45:00,
2013-04-26 15:50:00,57.8,34.2,30.36,NNE,17,3.0,8.0,41,0.00,,,0.00,Wunderground v.1.15,2013-04-26 19:50:00,
2013-04-26 16:00:00,57.8,34.2,30.35,NNW,341,4.0,4.0,41,0.00,,,0.00,Wunderground v.1.15,2013-04-26 20:00:00,
2013-04-26 16:05:00,57.8,33.6,30.36,NE,50,5.0,5.0,40,0.00,,,0.00,Wunderground v.1.15,2013-04-26 20:05:00,
2013-04-26 16:10:00,57.6,32.8,30.35,WNW,300,4.0,4.0,39,0.00,,,0.00,Wunderground v.1.15,2013-04-26 20:10:00,
2013-04-26 16:15:00,58.0,33.8,30.35,NNE,30,2.0,8.0,40,0.00,,,0.00,Wunderground v.1.15,2013-04-26 20:15:00,
2013-04-26 16:20:00,57.9,33.1,30.35,SE,134,3.0,3.0,39,0.00,,,0.00,Wunderground v.1.15,2013-04-26 20:20:00,
2013-04-26 16:25:00,58.1,33.2,30.35,NE,51,4.0,4.0,39,0.00,,,0.00,Wunderground v.1.15,2013-04-26 20:25:00,
2013-04-26 16:30:00,57.7,31.6,30.35,NNE,30,4.0,4.0,37,0.00,,,0.00,Wunderground v.1.15,2013-04-26 20:30:00,
2013-04-26 16:40:00,57.2,31.8,30.35,NE,44,4.0,8.0,38,0.00,,,0.00,Wunderground v.1.15,2013-04-26 20:40:00,
2013-04-26 16:45:00,57.3,31.9,30.35,ENE,74,4.0,8.0,38,0.00,,,0.00,Wunderground v.1.15,2013-04-26 20:45:00,
2013-04-26 16:50:00,57.1,31.7,30.35,NE,38,4.0,8.0,38,0.00,,,0.00,Wunderground v.1.15,2013-04-26 20:50:00,
2013-04-26 16:55:00,56.9,31.5,30.35,NNE,32,4.0,8.0,38,0.00,,,0.00,Wunderground v.1.15,2013-04-26 20:55:00,
2013-04-26 17:00:00,57.3,31.9,30.35,North,350,2.0,8.0,38,0.00,,,0.00,Wunderground v.1.15,2013-04-26 21:00:00,
2013-04-26 17:05:00,57.2,31.1,30.35,ENE,76,3.0,8.0,37,0.00,,,0.00,Wunderground v.1.15,2013-04-26 21:05:00,
2013-04-26 17:10:00,57.0,31.0,30.35,North,5,3.0,3.0,37,0.00,,,0.00,Wunderground v.1.15,2013-04-26 21:10:00,
2013-04-26 17:15:00,56.9,32.2,30.35,NNE,22,4.0,4.0,39,0.00,,,0.00,Wunderground v.1.15,2013-04-26 21:15:00,
2013-04-26 17:20:00,56.4,31.1,30.35,East,93,4.0,8.0,38,0.00,,,0.00,Wunderground v.1.15,2013-04-26 21:20:00,
2013-04-26 17:25:00,56.4,31.1,30.35,North,5,5.0,8.0,38,0.00,,,0.00,Wunderground v.1.15,2013-04-26 21:25:00,
2013-04-26 17:35:00,56.4,31.1,30.35,NE,53,4.0,8.0,38,0.00,,,0.00,Wunderground v.1.15,2013-04-26 21:35:00,
2013-04-26 17:40:00,56.2,30.2,30.36,NNE,30,5.0,8.0,37,0.00,,,0.00,Wunderground v.1.15,2013-04-26 21:40:00,
2013-04-26 17:45:00,56.6,30.6,30.36,NNW,341,3.0,8.0,37,0.00,,,0.00,Wunderground v.1.15,2013-04-26 21:45:00,
2013-04-26 17:50:00,56.6,31.3,30.36,NE,38,2.0,8.0,38,0.00,,,0.00,Wunderground v.1.15,2013-04-26 21:50:00,
2013-04-26 17:55:00,56.3,29.7,30.36,ENE,70,3.0,8.0,36,0.00,,,0.00,Wunderground v.1.15,2013-04-26 21:55:00,
2013-04-26 18:00:00,55.9,30.0,30.36,NE,49,4.0,4.0,37,0.00,,,0.00,Wunderground v.1.15,2013-04-26 22:00:00,
2013-04-26 18:05:00,55.7,29.8,30.36,ENE,75,4.0,5.0,37,0.00,,,0.00,Wunderground v.1.15,2013-04-26 22:05:00,
2013-04-26 18:10:00,55.5,29.6,30.36,NE,42,4.0,4.0,37,0.00,,,0.00,Wunderground v.1.15,2013-04-26 22:10:00,
2013-04-26 18:15:00,55.5,30.3,30.36,NE,46,3.0,5.0,38,0.00,,,0.00,Wunderground v.1.15,2013-04-26 22:15:00,
2013-04-26 18:20:00,55.5,30.3,30.36,NNE,24,3.0,3.0,38,0.00,,,0.00,Wunderground v.1.15,2013-04-26 22:20:00,
2013-04-26 18:30:00,55.2,30.7,30.37,NE,52,4.0,8.0,39,0.00,,,0.00,Wunderground v.1.15,2013-04-26 22:30:00,
2013-04-26 18:35:00,54.9,30.4,30.37,ENE,57,4.0,8.0,39,0.00,,,0.00,Wunderground v.1.15,2013-04-26 22:35:00,
2013-04-26 18:40:00,54.6,30.7,30.37,North,9,4.0,4.0,40,0.00,,,0.00,Wunderground v.1.15,2013-04-26 22:40:00,
2013-04-26 18:45:00,54.5,30.6,30.37,NNE,13,2.0,7.0,40,0.00,,,0.00,Wunderground v.1.15,2013-04-26 22:45:00,
2013-04-26 18:50:00,54.2,31.0,30.37,NE,49,3.0,8.0,41,0.00,,,0.00,Wunderground v.1.15,2013-04-26 22:50:00,
2013-04-26 18:55:00,53.8,30.0,30.37,North,5,4.0,8.0,40,0.00,,,0.00,Wunderground v.1.15,2013-04-26 22:55:00,
2013-04-26 19:00:00,53.6,30.4,30.37,ENE,59,3.0,8.0,41,0.00,,,0.00,Wunderground v.1.15,2013-04-26 23:00:00,
2013-04-26 19:10:00,53.3,30.2,30.37,NE,35,3.0,3.0,41,0.00,,,0.00,Wunderground v.1.15,2013-04-26 23:10:00,
2013-04-26 19:15:00,53.0,31.1,30.38,NNE,24,3.0,4.0,43,0.00,,,0.00,Wunderground v.1.15,2013-04-26 23:15:00,
2013-04-26 19:20:00,52.7,30.8,30.38,NE,35,4.0,4.0,43,0.00,,,0.00,Wunderground v.1.15,2013-04-26 23:20:00,
2013-04-26 19:25:00,52.6,30.7,30.38,North,5,4.0,8.0,43,0.00,,,0.00,Wunderground v.1.15,2013-04-26 23:25:00,
2013-04-26 19:30:00,52.2,30.9,30.38,NE,49,3.0,8.0,44,0.00,,,0.00,Wunderground v.1.15,2013-04-26 23:30:00,
2013-04-26 19:35:00,51.9,30.6,30.38,NE,40,3.0,8.0,44,0.00,,,0.00,Wunderground v.1.15,2013-04-26 23:35:00,
2013-04-26 19:40:00,51.8,31.1,30.38,North,5,3.0,8.0,45,0.00,,,0.00,Wunderground v.1.15,2013-04-26 23:40:00,
2013-04-26 19:50:00,51.1,31.0,30.38,NE,47,2.0,8.0,46,0.00,,,0.00,Wunderground v.1.15,2013-04-26 23:50:00,
2013-04-26 20:10:00,50.2,31.8,30.39,NE,34,4.0,8.0,49,0.00,,,0.00,Wunderground v.1.15,2013-04-27 00:10:00,
2013-04-26 20:15:00,50.0,31.6,30.39,North,355,4.0,8.0,49,0.00,,,0.00,Wunderground v.1.15,2013-04-27 00:15:00,
2013-04-26 20:20:00,49.9,31.5,30.40,NE,37,4.0,4.0,49,0.00,,,0.00,Wunderground v.1.15,2013-04-27 00:20:00,
2013-04-26 20:30:00,49.2,31.8,30.40,ENE,65,2.0,8.0,51,0.00,,,0.00,Wunderground v.1.15,2013-04-27 00:30:00,
2013-04-26 20:35:00,49.0,31.2,30.40,NNE,26,3.0,8.0,50,0.00,,,0.00,Wunderground v.1.15,2013-04-27 00:35:00,
2013-04-26 20:40:00,48.9,31.1,30.40,NNE,33,3.0,8.0,50,0.00,,,0.00,Wunderground v.1.15,2013-04-27 00:40:00,
2013-04-26 20:50:00,48.6,31.3,30.40,NE,37,3.0,3.0,51,0.00,,,0.00,Wunderground v.1.15,2013-04-27 00:50:00,
2013-04-26 20:55:00,48.3,31.0,30.40,NE,34,3.0,8.0,51,0.00,,,0.00,Wunderground v.1.15,2013-04-27 00:55:00,
2013-04-26 21:00:00,48.1,30.8,30.40,NE,34,2.0,2.0,51,0.00,,,0.00,Wunderground v.1.15,2013-04-27 01:00:00,
2013-04-26 21:05:00,47.9,30.6,30.41,NNE,29,2.0,3.0,51,0.00,,,0.00,Wunderground v.1.15,2013-04-27 01:05:00,
2013-04-26 21:15:00,47.8,30.5,30.41,NNE,30,3.0,8.0,51,0.00,,,0.00,Wunderground v.1.15,2013-04-27 01:15:00,
2013-04-26 21:20:00,47.6,30.3,30.41,NE,41,3.0,8.0,51,0.00,,,0.00,Wunderground v.1.15,2013-04-27 01:20:00,
2013-04-26 21:25:00,47.3,30.1,30.41,NNE,30,3.0,8.0,51,0.00,,,0.00,Wunderground v.1.15,2013-04-27 01:25:00,
2013-04-26 21:30:00,47.2,30.0,30.41,NNE,25,3.0,8.0,51,0.00,,,0.00,Wunderground v.1.15,2013-04-27 01:30:00,
2013-04-26 21:35:00,47.2,29.5,30.41,North,355,3.0,8.0,50,0.00,,,0.00,Wunderground v.1.15,2013-04-27 01:35:00,
2013-04-26 21:40:00,47.2,29.5,30.41,NE,46,4.0,4.0,50,0.00,,,0.00,Wunderground v.1.15,2013-04-27 01:40:00,
2013-04-26 21:45:00,47.1,29.4,30.41,NNE,28,4.0,8.0,50,0.00,,,0.00,Wunderground v.1.15,2013-04-27 01:45:00,
2013-04-26 21:55:00,46.5,29.3,30.42,NE,46,3.0,8.0,51,0.00,,,0.00,Wunderground v.1.15,2013-04-27 01:55:00,
2013-04-26 22:05:00,46.3,29.1,30.41,NE,49,3.0,3.0,51,0.00,,,0.00,Wunderground v.1.15,2013-04-27 02:05:00,
2013-04-26 22:10:00,46.2,29.1,30.42,NNE,14,3.0,3.0,51,0.00,,,0.00,Wunderground v.1.15,2013-04-27 02:10:00,
2013-04-26 22:15:00,46.1,29.0,30.42,ENE,58,4.0,5.0,51,0.00,,,0.00,Wunderground v.1.15,2013-04-27 02:15:00,
2013-04-26 22:20:00,46.1,28.5,30.41,NNE,28,5.0,5.0,50,0.00,,,0.00,Wunderground v.1.15,2013-04-27 02:20:00,
2013-04-26 22:25:00,46.1,28.5,30.42,NE,36,5.0,8.0,50,0.00,,,0.00,Wunderground v.1.15,2013-04-27 02:25:00,
2013-04-26 22:30:00,46.0,28.4,30.42,NE,38,4.0,4.0,50,0.00,,,0.00,Wunderground v.1.15,2013-04-27 02:30:00,
2013-04-26 22:35:00,46.0,28.4,30.41,NNE,27,3.0,8.0,50,0.00,,,0.00,Wunderground v.1.15,2013-04-27 02:35:00,
2013-04-26 22:40:00,46.0,28.4,30.41,NE,48,3.0,8.0,50,0.00,,,0.00,Wunderground v.1.15,2013-04-27 02:40:00,
2013-04-26 22:45:00,45.9,28.3,30.42,NE,35,3.0,8.0,50,0.00,,,0.00,Wunderground v.1.15,2013-04-27 02:45:00,
2013-04-26 22:55:00,45.8,28.7,30.41,ENE,59,2.0,8.0,51,0.00,,,0.00,Wunderground v.1.15,2013-04-27 02:55:00,
2013-04-26 23:00:00,45.6,28.5,30.41,ENE,71,3.0,3.0,51,0.00,,,0.00,Wunderground v.1.15,2013-04-27 03:00:00,
2013-04-26 23:05:00,45.4,28.8,30.42,NE,35,3.0,8.0,52,0.00,,,0.00,Wunderground v.1.15,2013-04-27 03:05:00,
2013-04-26 23:10:00,45.4,28.8,30.41,NNE,21,3.0,3.0,52,0.00,,,0.00,Wunderground v.1.15,2013-04-27 03:10:00,
2013-04-26 23:15:00,45.3,28.7,30.42,North,355,3.0,4.0,52,0.00,,,0.00,Wunderground v.1.15,2013-04-27 03:15:00,
2013-04-26 23:25:00,45.1,28.5,30.42,East,84,2.0,8.0,52,0.00,,,0.00,Wunderground v.1.15,2013-04-27 03:25:00,
2013-04-26 23:30:00,44.9,28.3,30.42,East,84,0.0,8.0,52,0.00,,,0.00,Wunderground v.1.15,2013-04-27 03:30:00,
2013-04-26 23:40:00,44.5,28.4,30.43,East,86,0.0,8.0,53,0.00,,,0.00,Wunderground v.1.15,2013-04-27 03:40:00,
2013-04-26 23:45:00,44.2,28.1,30.43,NE,51,0.0,8.0,53,0.00,,,0.00,Wunderground v.1.15,2013-04-27 03:45:00,
2013-04-26 23:50:00,44.0,28.4,30.43,NE,51,0.0,8.0,54,0.00,,,0.00,Wunderground v.1.15,2013-04-27 03:50:00,
2013-04-26 23:55:00,43.6,28.5,30.43,NE,51,0.0,8.0,55,0.00,,,0.00,Wunderground v.1.15,2013-04-27 03:55:00,